AirNav   Phillips 66 Aviation Fuel
 
 683 users online  

F41 Ennis Municipal Airport
Ennis, Texas, USA

GOING TO ENNIS?


FAA INFORMATION EFFECTIVE 01 FEBRUARY 2018

Location

FAA Identifier: F41
Lat/Long: 32-19-46.9000N / 096-39-50.0000W
32-19.781667N / 096-39.833333W
32.3296944 / -96.6638889
(estimated)
Elevation: 500.1 ft. / 152.4 m (surveyed)
Variation: 06E (1985)
From city: 2 miles W of ENNIS, TX
Time zone: UTC -6 (UTC -5 during Daylight Saving Time)
Zip code: 75119

Airport Operations

Airport use: Open to the public
Control tower: no
ARTCC: FORT WORTH CENTER
FSS: FORT WORTH FLIGHT SERVICE STATION
NOTAMs facility: FTW (NOTAM-D service available)
Attendance: SAT 0800-1200, ALL MON-FRI 0800-1700
Wind indicator: lighted
Segmented circle: yes
Lights: MIRL RY 15/33 PRESET LOW INTST; TO INCR INTST & ACTVT REIL & PAPI RYS 15 & 33 - CTAF.
Beacon: white-green (lighted land airport)
Operates sunset to sunrise.

Airport Communications

CTAF: 122.9
REGIONAL APPROACH: 125.2
REGIONAL DEPARTURE: 125.2
EESAT STAR: 125.025 125.275
FINGR STAR: 125.025 125.275
GREGS STAR: 118.1
JFRYE STAR: 118.1
KNEAD STAR: 135.975
LOADS STAR: 125.025 125.275
SLANT STAR: 125.025 125.275
SWVAY STAR: 135.975
YEAGR STAR: 125.025 125.275
WX AWOS-3 at JWY (15 nm NW): 119.575 (972-937-4747)
WX AWOS-3 at LNC (15 nm N): 118.975 (972-227-0471)

Nearby radio navigation aids

VOR radial/distance  VOR name  Freq  Var
CQYr285/24.2CEDAR CREEK VORTAC114.8006E
CVEr154/35.8COWBOY VOR/DME116.2006E
TTTr144/37.6MAVERICK VOR/DME113.1006E

 
NDB name  Hdg/Dist  Freq  Var  ID
POWELL317/20.034406ECGQ -.-. --. --.-
CORSICANA317/22.739606ECRS -.-. .-. ...
MESQUITE190/29.624803EPQF .--. --.- ..-.
TRAVIS213/33.326006EAVZ .- ...- --..
PYRAMID314/36.741806EPYF .--. -.-- ..-.
CROSSROADS286/39.321508ECSZ -.-. ... --..

Airport Services

Fuel available: 100LL JET-A
FUEL AVBL 24 HRS WITH MAJOR CREDIT CARD.
Parking: tiedowns
Airframe service: MAJOR
Powerplant service: MAJOR
Bottled oxygen: NONE
Bulk oxygen: NONE

Runway Information

Runway 15/33

Dimensions: 3999 x 50 ft. / 1219 x 15 m
Surface: asphalt, in good condition
Weight bearing capacity: 
Single wheel: 18.0
Runway edge lights: medium intensity
RUNWAY 15  RUNWAY 33
Latitude: 32-20.094650N32-19.469283N
Longitude: 096-39.957317W096-39.710687W
Elevation: 500.1 ft.477.0 ft.
Gradient: 0.6% UP
Traffic pattern: rightleft
Runway heading: 155 magnetic, 161 true335 magnetic, 341 true
Displaced threshold: no255 ft.
Markings: basic, in good conditionbasic, in good condition
Visual slope indicator: 2-light PAPI on left (3.00 degrees glide path)2-light PAPI on left (3.00 degrees glide path)
Runway end identifier lights: yesyes
Touchdown point: yes, no lightsyes, no lights
Obstructions: 19 ft. tree, 908 ft. from runway, 87 ft. left of centerline, 37:1 slope to clear27 ft. pline, marked, 1125 ft. from runway, 34:1 slope to clear
APCH SLOPE 50:1 AT DSPLCD THLD.

Airport Ownership and Management from official FAA records

Ownership: Publicly-owned
Owner: CITY OF ENNIS
PO BOX 220
ENNIS, TX 75120-0220
Phone 972-875-1234
Manager: SCOTT DIXON, CITY MGR
115 W BROWN STREET
ENNIS, TX 75119
Phone (972) 875-1234
EMERGENCY PHONE: 972-875-4462.

Airport Operational Statistics

Aircraft based on the field: 14
Single engine airplanes: 12
Multi engine airplanes: 2
    
Aircraft operations: avg 71/week *
73% local general aviation
24% transient general aviation
3% military
* for 12-month period ending 04 April 2016

Additional Remarks

WATCH FOR BIRDS AT S END OF ARPT.
FOR CD CTC REGIONAL APCH AT 972-615-2799.

Instrument Procedures

NOTE: All procedures below are presented as PDF files. If you need a reader for these files, you should download the free Adobe Reader.

NOT FOR NAVIGATION. Please procure official charts for flight.
FAA instrument procedures published for use between 1 February 2018 at 0901Z and 1 March 2018 at 0900Z.

 
STARs - Standard Terminal Arrivals
FINGR FIVE **CHANGED**   2 pages: [1] [2] (476KB)
GREGS EIGHT   2 pages: [1] [2] (556KB)
JFRYE THREE (RNAV)   download (243KB)
SLANT THREE (RNAV) **CHANGED**   download (229KB)
SWVAY FOUR (RNAV)   download (225KB)
 
IAPs - Instrument Approach Procedures
VOR/DME-A **CHANGED**   download (162KB)
 
Departure Procedures
GARLAND SIX **CHANGED**   2 pages: [1] [2] (315KB)
HUBBARD NINE **CHANGED**   2 pages: [1] [2] (298KB)
KINGDOM FOUR **CHANGED**   2 pages: [1] [2] (339KB)
KUSSO FIVE (RNAV) **NEW**   2 pages: [1] [2] (252KB)
SWABR FIVE (RNAV) **CHANGED**   2 pages: [1] [2] (250KB)
NOTE: Special Take-Off Minimums/Departure Procedures apply   download (113KB)

Other nearby airports with instrument procedures:

KJWY - Mid-Way Regional Airport (15 nm NW)
KLNC - Lancaster Regional Airport (15 nm N)
KCRS - C David Campbell Field-Corsicana Municipal Airport (23 nm SE)
KRBD - Dallas Executive Airport (23 nm NW)
KHQZ - Mesquite Metro Airport (26 nm N)
 
Loc | Ops | Rwys | IFR | FBO | Links
Com | Nav | Svcs | Stats | Notes

AirNav Hotels Sweepstakes
 
Area around F41 (Ennis Municipal Airport)
 
Road maps at: MapQuest Bing Google
 
Aerial photo
WARNING: Photo may not be current or correct
Aerial photo of F41 (Ennis Municipal Airport)
Photo by Paul Reinders
Photo taken 07-Jan-2007

Do you have a better or more recent aerial photo of Ennis Municipal Airport that you would like to share? If so, please send us your photo.

 
Sectional chart

 
Airport distance calculator
Flying to Ennis Municipal Airport? Find the distance to fly.

From to F41

Sunrise and sunset
Times for 24-Feb-2018
 Local
(UTC-6)
 Zulu
(UTC)
Morning civil twilight06:3612:36
Sunrise07:0113:01
Sunset18:1900:19
Evening civil twilight18:4400:44

Current date and time
Zulu (UTC)  24-Feb-2018 13:05:33
Local (UTC-6)  24-Feb-2018 07:05:33
 
METAR
KJWY 
15nm NW 
241255Z AUTO 09003KT 3/4SM DZ OVC003 09/09 A2986 RMK AO2 P0001 T00910091
KLNC 
15nm N 
241255Z AUTO 09005KT 3/4SM VCTSRA OVC001 09/09 A2985 RMK AO2 LTG DSNT W THRU N P0002 T00900087
KCRS 
22nm SE 
241253Z AUTO 08006KT 1/2SM -RA FG VV006 14/14 A2986 RMK AO2 RAB07 SLP109 P0000 T01390139
KRBD 
24nm NW 
241253Z 12005KT 1 1/4SM VCTS BR OVC002 10/10 A2983 RMK AO2 LTG DSNT W-N RAE53 SLP098 P0004 T01000100
KHQZ 
26nm N 
241250Z 08006KT 1/2SM FG OVC003 10/10 A2986
KINJ 
26nm SW 
241255Z AUTO 09013KT 1/2SM -DZ OVC002 12/12 A2983 RMK AO2 LTG DSNT N AND NW T01200120
TAF
KGKY 
30nm NW 
241127Z 2412/2512 04004KT 2SM -RA VCTS OVC003CB TEMPO 2412/2414 2SM -TSRA OVC004CB FM241400 20013KT 3SM BR VCTS OVC006CB TEMPO 2414/2417 27015G25KT 1SM TSRA FM241800 27016KT P6SM BKN015 FM241900 27013KT P6SM SCT025 FM250000 30010KT P6SM SCT250 FM250900 05007KT P6SM FEW250
KDAL 
33nm N 
241127Z 2412/2512 33005KT 1SM -RA VCTS OVC002CB TEMPO 2412/2415 2SM -TSRA OVC004CB FM241500 20013KT 3SM BR VCTS OVC006CB TEMPO 2415/2417 27015G25KT 1SM TSRA FM241800 27016KT P6SM BKN015 FM241900 27013KT P6SM SCT025 FM250000 30010KT P6SM SCT250 FM250900 05007KT P6SM FEW250
NOTAMs
Click for the latest NOTAMs
NOTAMs are issued by the DoD/FAA and will open in a separate window not controlled by AirNav.

 

 
 

FBO, Fuel Providers, and Aircraft Ground Support

  
 Business Name 
 
 Contact 
 
 Services / Description 
 
Fuel Prices
 
Comments
  
Hammock Aviation Services 972-875-4279
no information available

If you are affiliated with Hammock Aviation Services and would like to show here your services, contact info, web link, logo, and more, click here
100LL Jet A
FS $3.92 --- 
SS $3.92 $2.85 
 Updated 22-Feb-2018
 
   2 read write
FS=Full service
SS=Self service
Update Fuel Prices
 

Would you like to see your business listed on this page?

 If your business provides an interesting product or service to pilots, flight crews, aircraft, or users of the Ennis Municipal Airport, you should consider listing it here.  To start the listing process, click on the button below
 
Add a business
 

Other Pages about Ennis Municipal Airport

www.ennis-texas.com/...
 
Update a link
 
Copyright © AirNav, LLC. All rights reserved. Privacy Policy  Contact